Terminal Aerodrome Forecast
Issued by NWS

Home | Current Version | Previous Version | Graphics & Text | Print | Product List | Glossary On
Versions: 1 2 3 4 5 6 7 8 9 10 11 12 13 14 15 16 17
000
FTUS43 KABR 041700
TAFMBG
TAF
KMBG 041735Z 0418/0518 33013G23KT P6SM BKN035
     FM042300 33012KT P6SM SKC
     FM050300 VRB06KT P6SM SKC
     FM051400 19010KT P6SM SKC=

USA.gov is the U.S. government's official web portal to all federal, state and local government web resources and services.